Weather at Detroit Metropolitan Wayne County Airport

Public forecast

Using degrees Fahrenheit for public forecast. Weather courtesy of forecast.io.

Current aviation weather report (METAR) for Detroit Metropolitan Wayne County Airport

Retrieved 2020/10/26 23:53 UTC (13 minutes ago):

KDTW 262353Z 31007KT 10SM FEW060 BKN090 OVC150 07/01 A3024 RMK AO2 SLP243 T00670006 10089 20067 51020

Aviation forecast (TAF) for Detroit Metropolitan Wayne County Airport

Retrieved 2020-10-27 00:39 UTC (0 seconds ago):

TAF KDTW 262337Z 2700/2806 32006KT P6SM BKN060 OVC090 FM270200 28005KT P6SM SCT045 BKN100 FM271400 26005KT P6SM SCT025 BKN040 FM271900 24005KT P6SM BKN045 FM280200 23004KT P6SM SCT060